createdAt,value
2018-08-09T00:00:04.302Z,19.03
2018-08-09T00:02:32.821Z,16.33
2018-08-09T00:05:02.179Z,18.67
2018-08-09T00:07:30.674Z,16.37
2018-08-09T00:09:59.423Z,18.33
2018-08-09T00:12:27.958Z,18.53
2018-08-09T00:14:56.544Z,18.20
2018-08-09T00:17:25.164Z,18.20
2018-08-09T00:19:53.838Z,17.43
2018-08-09T00:22:22.420Z,19.17
2018-08-09T00:24:50.918Z,18.90
2018-08-09T00:27:19.705Z,19.77
2018-08-09T00:29:48.355Z,19.57
2018-08-09T00:32:17.392Z,19.00
2018-08-09T00:34:46.364Z,19.43
2018-08-09T00:37:14.917Z,21.53
2018-08-09T00:39:43.852Z,20.03
2018-08-09T00:42:12.483Z,19.27
2018-08-09T00:44:41.100Z,21.10
2018-08-09T00:47:09.761Z,18.73
2018-08-09T00:49:39.103Z,18.10
2018-08-09T00:52:07.692Z,19.20
2018-08-09T00:54:36.313Z,19.83
2018-08-09T00:57:04.856Z,20.77
2018-08-09T00:59:33.413Z,20.60
2018-08-09T01:02:01.952Z,20.67
2018-08-09T01:04:30.486Z,20.90
2018-08-09T01:06:59.173Z,21.03
2018-08-09T01:09:27.717Z,20.33
2018-08-09T01:11:56.241Z,20.17
2018-08-09T01:14:24.763Z,19.03
2018-08-09T01:16:53.304Z,21.20
2018-08-09T01:19:22.200Z,20.07
2018-08-09T01:21:50.739Z,19.63
2018-08-09T01:24:19.249Z,20.80
2018-08-09T01:26:47.873Z,20.40
2018-08-09T01:29:16.557Z,21.90
2018-08-09T01:31:45.236Z,18.40
2018-08-09T01:34:13.756Z,19.63
2018-08-09T01:36:42.404Z,21.17
2018-08-09T01:39:13.602Z,18.40
2018-08-09T01:41:53.490Z,18.77
2018-08-09T01:44:22.166Z,16.97
2018-08-09T01:46:50.688Z,18.00
2018-08-09T01:49:19.240Z,17.70
2018-08-09T01:51:47.806Z,16.87
2018-08-09T01:54:16.334Z,16.63
2018-08-09T01:56:44.845Z,15.50
2018-08-09T01:59:13.389Z,17.27
2018-08-09T02:01:42.000Z,16.20
2018-08-09T02:04:10.831Z,17.97
2018-08-09T02:06:39.363Z,17.07
2018-08-09T02:09:12.329Z,19.23
2018-08-09T02:11:40.948Z,19.70
2018-08-09T02:14:09.463Z,20.80
2018-08-09T02:16:38.016Z,19.30
2018-08-09T02:19:06.666Z,21.87
2018-08-09T02:21:35.270Z,19.47
2018-08-09T02:24:03.814Z,20.43
2018-08-09T02:26:32.348Z,18.97
2018-08-09T02:29:01.171Z,20.37
2018-08-09T02:31:29.730Z,22.20
2018-08-09T02:33:58.237Z,22.50
2018-08-09T02:36:26.753Z,22.53
2018-08-09T02:38:55.400Z,22.50
2018-08-09T02:41:24.183Z,21.07
2018-08-09T02:43:52.787Z,21.43
2018-08-09T02:46:21.410Z,20.87
2018-08-09T02:48:50.008Z,20.13
2018-08-09T02:51:18.685Z,21.47
2018-08-09T02:53:47.254Z,21.17
2018-08-09T02:56:15.870Z,21.63
2018-08-09T02:58:44.805Z,23.60
2018-08-09T03:01:13.400Z,20.37
2018-08-09T03:03:42.085Z,21.67
2018-08-09T03:06:10.840Z,23.33
2018-08-09T03:08:39.664Z,22.50
2018-08-09T03:11:08.481Z,19.87
2018-08-09T03:13:37.021Z,22.07
2018-08-09T03:16:05.572Z,20.40
2018-08-09T03:18:34.126Z,21.60
2018-08-09T03:21:02.729Z,25.27
2018-08-09T03:23:31.412Z,22.37
2018-08-09T03:25:59.935Z,26.63
2018-08-09T03:28:28.544Z,26.00
2018-08-09T03:30:57.075Z,26.63
2018-08-09T03:33:25.949Z,27.57
2018-08-09T03:35:54.488Z,26.03
2018-08-09T03:38:23.077Z,26.23
2018-08-09T03:40:51.787Z,27.83
2018-08-09T03:43:20.286Z,26.13
2018-08-09T03:45:48.926Z,25.60
2018-08-09T03:48:17.471Z,25.03
2018-08-09T03:50:46.058Z,24.67
2018-08-09T03:53:14.675Z,25.53
2018-08-09T03:55:43.297Z,26.27
2018-08-09T03:58:11.902Z,26.07
2018-08-09T04:00:40.463Z,26.73
2018-08-09T04:03:09.036Z,28.73
2018-08-09T04:05:37.571Z,26.43
2018-08-09T04:08:06.175Z,25.50
2018-08-09T04:10:34.717Z,24.33
2018-08-09T04:13:03.272Z,24.77
2018-08-09T04:15:31.894Z,23.70
2018-08-09T04:18:00.517Z,24.77
2018-08-09T04:20:29.085Z,25.73
2018-08-09T04:22:57.621Z,28.73
2018-08-09T04:25:26.189Z,25.97
2018-08-09T04:27:54.701Z,25.47
2018-08-09T04:30:23.237Z,24.50
2018-08-09T04:32:51.757Z,30.30
2018-08-09T04:35:20.343Z,25.40
2018-08-09T04:37:49.179Z,26.00
2018-08-09T04:40:24.249Z,26.87
2018-08-09T04:42:52.785Z,24.77
2018-08-09T04:45:21.512Z,24.67
2018-08-09T04:47:50.060Z,27.37
2018-08-09T04:50:18.605Z,26.07
2018-08-09T04:52:47.137Z,24.47
2018-08-09T04:55:15.738Z,28.50
2018-08-09T04:57:44.247Z,26.10
2018-08-09T05:00:12.978Z,27.97
2018-08-09T05:02:41.559Z,30.10
2018-08-09T05:05:10.267Z,28.93
2018-08-09T05:07:38.815Z,28.03
2018-08-09T05:10:09.411Z,29.30
2018-08-09T05:12:39.201Z,29.17
2018-08-09T05:15:07.762Z,29.03
2018-08-09T05:17:36.468Z,26.93
2018-08-09T05:20:06.247Z,29.37
2018-08-09T05:22:34.945Z,28.33
2018-08-09T05:25:03.438Z,31.63
2018-08-09T05:27:31.953Z,34.93
2018-08-09T05:30:00.655Z,33.37
2018-08-09T05:32:29.416Z,29.70
2018-08-09T05:34:57.936Z,32.73
2018-08-09T05:37:26.451Z,32.73
2018-08-09T05:39:55.002Z,35.00
2018-08-09T05:42:23.663Z,33.60
2018-08-09T05:44:52.250Z,31.53
2018-08-09T05:47:20.845Z,34.63
2018-08-09T05:49:49.388Z,30.57
2018-08-09T05:52:17.968Z,30.40
2018-08-09T05:54:46.556Z,33.83
2018-08-09T05:57:15.084Z,29.30
2018-08-09T05:59:43.638Z,31.50
2018-08-09T06:02:12.215Z,30.40
2018-08-09T06:04:41.170Z,25.20
2018-08-09T06:07:09.786Z,27.50
2018-08-09T06:09:38.533Z,26.10
2018-08-09T06:12:07.345Z,28.97
2018-08-09T06:14:35.865Z,26.40
2018-08-09T06:17:04.447Z,26.17
2018-08-09T06:19:32.991Z,29.03
2018-08-09T06:22:01.648Z,24.13
2018-08-09T06:24:29.112Z,23.37
2018-08-09T06:26:57.797Z,29.60
2018-08-09T06:29:26.363Z,22.87
2018-08-09T06:31:54.992Z,23.47
2018-08-09T06:34:23.542Z,25.83
2018-08-09T06:36:52.240Z,22.30
2018-08-09T06:39:20.981Z,19.97
2018-08-09T06:41:49.525Z,20.20
2018-08-09T06:44:18.074Z,21.03
2018-08-09T06:46:46.905Z,23.20
2018-08-09T06:49:15.439Z,21.47
2018-08-09T06:51:43.933Z,19.73
2018-08-09T06:54:12.493Z,20.03
2018-08-09T06:56:41.028Z,21.37
2018-08-09T06:59:09.982Z,16.07
2018-08-09T07:01:38.641Z,22.67
2018-08-09T07:04:07.222Z,16.30
2018-08-09T07:06:35.744Z,21.40
2018-08-09T07:09:06.723Z,16.83
2018-08-09T07:11:35.263Z,16.20
2018-08-09T07:14:03.895Z,14.27
2018-08-09T07:16:32.536Z,16.33
2018-08-09T07:19:01.195Z,14.43
2018-08-09T07:21:29.731Z,20.10
2018-08-09T07:23:58.329Z,16.37
2018-08-09T07:26:26.908Z,13.30
2018-08-09T07:28:55.521Z,17.10
2018-08-09T07:31:24.078Z,12.07
2018-08-09T07:33:52.960Z,15.73
2018-08-09T07:36:21.473Z,14.10
2018-08-09T07:38:50.131Z,15.97
2018-08-09T07:41:18.872Z,11.40
2018-08-09T07:43:47.509Z,13.37
2018-08-09T07:46:16.067Z,12.30
2018-08-09T07:48:44.830Z,14.23
2018-08-09T07:51:13.328Z,12.60
2018-08-09T07:53:42.260Z,17.27
2018-08-09T07:56:10.820Z,10.53
2018-08-09T07:58:39.370Z,12.37
2018-08-09T08:01:07.896Z,11.53
2018-08-09T08:03:36.448Z,16.33
2018-08-09T08:06:05.205Z,13.77
2018-08-09T08:08:33.713Z,12.60
2018-08-09T08:11:04.298Z,10.40
2018-08-09T08:13:33.802Z,11.97
2018-08-09T08:16:02.570Z,11.73
2018-08-09T08:18:31.302Z,8.03
2018-08-09T08:20:59.879Z,10.20
2018-08-09T08:23:28.502Z,10.27
2018-08-09T08:25:57.069Z,13.27
2018-08-09T08:28:25.581Z,11.87
2018-08-09T08:30:54.238Z,9.17
2018-08-09T08:33:22.788Z,8.40
2018-08-09T08:35:51.326Z,11.03
2018-08-09T08:38:20.429Z,10.53
2018-08-09T08:40:48.980Z,10.13
2018-08-09T08:43:17.589Z,12.53
2018-08-09T08:45:46.149Z,12.97
2018-08-09T08:48:14.754Z,8.77
2018-08-09T08:50:43.272Z,10.40
2018-08-09T08:53:11.916Z,11.07
2018-08-09T08:55:40.468Z,10.43
2018-08-09T08:58:09.083Z,11.73
2018-08-09T09:00:37.676Z,9.40
2018-08-09T09:03:06.243Z,11.43
2018-08-09T09:05:34.783Z,9.27
2018-08-09T09:08:04.331Z,9.37
2018-08-09T09:10:33.015Z,8.03
2018-08-09T09:13:01.582Z,10.97
2018-08-09T09:15:30.176Z,10.13
2018-08-09T09:17:58.795Z,9.60
2018-08-09T09:20:27.432Z,9.40
2018-08-09T09:22:55.968Z,8.00
2018-08-09T09:25:24.498Z,11.37
2018-08-09T09:27:53.018Z,11.97
2018-08-09T09:30:21.621Z,7.50
2018-08-09T09:32:50.168Z,12.60
2018-08-09T09:35:18.730Z,11.70
2018-08-09T09:37:47.300Z,8.20
2018-08-09T09:40:15.858Z,8.50
2018-08-09T09:42:44.392Z,10.97
2018-08-09T09:45:13.025Z,7.33
2018-08-09T09:47:41.548Z,9.03
2018-08-09T09:50:11.337Z,9.00
2018-08-09T09:52:39.891Z,5.83
2018-08-09T09:55:08.413Z,7.63
2018-08-09T09:57:37.255Z,9.17
2018-08-09T10:00:07.118Z,10.43
2018-08-09T10:02:35.609Z,7.90
2018-08-09T10:05:04.178Z,4.23
2018-08-09T10:07:33.015Z,11.03
2018-08-09T10:10:01.636Z,6.20
2018-08-09T10:12:30.176Z,7.23
2018-08-09T10:14:58.994Z,11.20
2018-08-09T10:17:27.630Z,6.87
2018-08-09T10:19:56.166Z,9.53
2018-08-09T10:22:24.781Z,7.07
2018-08-09T10:24:53.509Z,7.67
2018-08-09T10:27:22.018Z,6.87
2018-08-09T10:29:50.651Z,9.13
2018-08-09T10:32:19.239Z,6.63
2018-08-09T10:34:47.977Z,9.93
2018-08-09T10:37:16.619Z,10.27
2018-08-09T10:39:45.130Z,9.10
2018-08-09T10:42:13.821Z,8.17
2018-08-09T10:44:42.324Z,9.37
2018-08-09T10:47:10.854Z,12.37
2018-08-09T10:49:40.306Z,10.57
2018-08-09T10:52:08.862Z,10.73
2018-08-09T10:54:37.449Z,10.03
2018-08-09T10:57:06.413Z,12.37
2018-08-09T10:59:35.180Z,12.57
2018-08-09T11:02:03.872Z,12.37
2018-08-09T11:04:32.408Z,11.70
2018-08-09T11:07:00.904Z,12.00
2018-08-09T11:09:29.438Z,15.87
2018-08-09T11:11:57.952Z,18.47
2018-08-09T11:14:26.472Z,17.70
2018-08-09T11:16:55.029Z,16.43
2018-08-09T11:19:23.649Z,18.23
2018-08-09T11:21:52.244Z,17.20
2018-08-09T11:24:21.855Z,23.43
2018-08-09T11:26:50.471Z,24.67
2018-08-09T11:29:18.986Z,29.67
2018-08-09T11:31:47.534Z,24.43
2018-08-09T11:34:16.144Z,36.53
2018-08-09T11:36:44.864Z,42.63
2018-08-09T11:39:13.681Z,40.30
2018-08-09T11:41:42.175Z,35.50
2018-08-09T11:44:11.556Z,32.30
2018-08-09T11:46:40.079Z,31.00
2018-08-09T11:49:08.558Z,30.93
2018-08-09T11:51:37.242Z,32.53
2018-08-09T11:54:06.566Z,41.17
2018-08-09T11:56:35.288Z,34.20
2018-08-09T11:59:03.818Z,29.40
2018-08-09T12:01:32.984Z,30.90
2018-08-09T12:04:01.579Z,31.77
2018-08-09T12:06:30.177Z,32.43
2018-08-09T12:08:58.826Z,30.50
2018-08-09T12:11:27.413Z,31.20
2018-08-09T12:13:56.134Z,39.70
2018-08-09T12:16:24.741Z,30.40
2018-08-09T12:18:53.651Z,29.83
2018-08-09T12:21:22.244Z,31.27
2018-08-09T12:23:50.877Z,29.30
2018-08-09T12:26:19.402Z,28.00
2018-08-09T12:28:48.200Z,28.83
2018-08-09T12:31:16.735Z,30.07
2018-08-09T12:33:45.320Z,29.10
2018-08-09T12:36:13.881Z,30.27
2018-08-09T12:38:42.657Z,30.03
2018-08-09T12:41:11.198Z,28.03
2018-08-09T12:43:39.847Z,30.00
2018-08-09T12:46:08.550Z,29.13
2018-08-09T12:48:37.428Z,29.23
2018-08-09T12:51:05.995Z,30.10
2018-08-09T12:53:38.545Z,31.50
2018-08-09T12:56:07.115Z,31.67
2018-08-09T12:58:35.794Z,32.97
2018-08-09T13:01:04.436Z,32.13
2018-08-09T13:03:32.970Z,32.03
2018-08-09T13:06:01.861Z,29.23
2018-08-09T13:08:34.524Z,34.50
2018-08-09T13:11:03.185Z,34.30
2018-08-09T13:13:31.769Z,34.60
2018-08-09T13:16:00.292Z,35.80
2018-08-09T13:18:28.963Z,35.93
2018-08-09T13:20:57.625Z,34.57
2018-08-09T13:23:26.339Z,34.97
2018-08-09T13:25:54.938Z,33.03
2018-08-09T13:28:23.468Z,33.63
2018-08-09T13:30:52.030Z,35.30
2018-08-09T13:33:20.911Z,34.80
2018-08-09T13:35:49.497Z,35.13
2018-08-09T13:38:18.191Z,32.53
2018-08-09T13:40:47.819Z,30.97
2018-08-09T13:43:16.426Z,29.17
2018-08-09T13:45:44.970Z,31.83
2018-08-09T13:48:13.653Z,32.47
2018-08-09T13:50:42.177Z,30.60
2018-08-09T13:53:10.772Z,32.40
2018-08-09T13:55:39.374Z,31.27
2018-08-09T13:58:07.944Z,33.00
2018-08-09T14:00:36.585Z,29.20
2018-08-09T14:03:05.129Z,32.20
2018-08-09T14:05:33.738Z,28.73
2018-08-09T14:08:02.426Z,31.57
2018-08-09T14:10:31.112Z,29.27
2018-08-09T14:12:59.882Z,30.10
2018-08-09T14:15:28.447Z,26.80
2018-08-09T14:17:57.099Z,26.43
2018-08-09T14:20:25.864Z,24.07
2018-08-09T14:22:54.649Z,20.90
2018-08-09T14:25:23.359Z,18.77
2018-08-09T14:27:52.171Z,20.40
2018-08-09T14:30:21.056Z,17.60
2018-08-09T14:32:49.723Z,27.17
2018-08-09T14:35:18.295Z,22.30
2018-08-09T14:37:47.545Z,24.50
2018-08-09T14:40:16.926Z,22.90
2018-08-09T14:42:45.457Z,28.60
2018-08-09T14:45:15.653Z,22.60
2018-08-09T14:47:44.260Z,19.00
2018-08-09T14:50:12.868Z,18.20
2018-08-09T14:52:41.358Z,16.33
2018-08-09T14:55:11.573Z,20.23
2018-08-09T14:57:40.473Z,17.23
2018-08-09T15:00:15.226Z,19.17
2018-08-09T15:02:44.525Z,21.60
2018-08-09T15:05:13.269Z,17.53
2018-08-09T15:07:42.488Z,17.60
2018-08-09T15:10:11.338Z,21.77
2018-08-09T15:12:40.269Z,22.03
2018-08-09T15:15:10.529Z,21.33
2018-08-09T15:17:39.263Z,25.40
2018-08-09T15:20:10.800Z,18.97
2018-08-09T15:22:39.786Z,20.53
2018-08-09T15:25:09.593Z,21.03
2018-08-09T15:27:38.196Z,26.07
2018-08-09T15:30:15.837Z,22.90
2018-08-09T15:32:44.577Z,25.77
2018-08-09T15:35:13.599Z,24.37
2018-08-09T15:37:42.294Z,27.60
2018-08-09T15:40:12.215Z,23.70
2018-08-09T15:42:40.865Z,24.17
2018-08-09T15:45:12.326Z,26.03
2018-08-09T15:47:41.551Z,25.90
2018-08-09T15:50:17.633Z,20.97
2018-08-09T15:52:46.441Z,18.30
2018-08-09T15:55:16.600Z,20.47
2018-08-09T15:57:45.538Z,16.60
2018-08-09T16:00:17.647Z,18.53
2018-08-09T16:02:46.477Z,15.53
2018-08-09T16:05:15.143Z,17.00
2018-08-09T16:07:43.724Z,14.93
2018-08-09T16:10:14.057Z,13.10
2018-08-09T16:12:42.649Z,15.33
2018-08-09T16:15:13.242Z,17.77
2018-08-09T16:17:42.033Z,18.00
2018-08-09T16:20:11.672Z,16.40
2018-08-09T16:22:40.624Z,15.13
2018-08-09T16:25:12.051Z,20.63
2018-08-09T16:27:40.751Z,17.87
2018-08-09T16:30:17.459Z,14.43
2018-08-09T16:32:46.276Z,16.30
2018-08-09T16:35:15.355Z,22.03
2018-08-09T16:37:45.126Z,16.23
2018-08-09T16:40:21.479Z,16.80
2018-08-09T16:42:50.086Z,17.60
2018-08-09T16:45:19.856Z,16.90
2018-08-09T16:47:49.235Z,16.33
2018-08-09T16:50:24.232Z,17.00
2018-08-09T16:52:53.103Z,19.20
2018-08-09T16:55:23.059Z,20.10
2018-08-09T16:57:51.804Z,19.57
2018-08-09T17:00:23.612Z,15.40
2018-08-09T17:02:53.584Z,17.77
2018-08-09T17:05:24.489Z,20.43
2018-08-09T17:07:53.313Z,19.70
2018-08-09T17:10:23.469Z,16.87
2018-08-09T17:12:52.347Z,17.33
2018-08-09T17:15:23.383Z,18.27
2018-08-09T17:17:52.735Z,17.30
2018-08-09T17:20:23.914Z,17.33
2018-08-09T17:22:52.702Z,17.73
2018-08-09T17:25:21.585Z,16.00
2018-08-09T17:27:50.799Z,16.63
2018-08-09T17:30:22.138Z,17.50
2018-08-09T17:32:50.729Z,16.67
2018-08-09T17:35:19.576Z,18.87
2018-08-09T17:37:48.188Z,15.33
2018-08-09T17:40:20.763Z,15.23
2018-08-09T17:42:50.427Z,16.03
2018-08-09T17:45:20.335Z,13.93
2018-08-09T17:47:48.969Z,14.13
2018-08-09T17:50:17.637Z,12.23
2018-08-09T17:52:46.306Z,11.20
2018-08-09T17:55:15.887Z,10.77
2018-08-09T17:57:45.258Z,11.13
2018-08-09T18:00:17.417Z,11.07
2018-08-09T18:02:45.944Z,11.30
2018-08-09T18:05:14.559Z,12.13
2018-08-09T18:07:43.161Z,12.33
2018-08-09T18:10:16.018Z,10.43
2018-08-09T18:12:44.693Z,9.53
2018-08-09T18:15:13.396Z,8.67
2018-08-09T18:17:41.986Z,8.67
2018-08-09T18:20:12.712Z,8.13
2018-08-09T18:22:41.693Z,8.27
2018-08-09T18:25:11.828Z,8.63
2018-08-09T18:27:40.490Z,9.13
2018-08-09T18:30:15.968Z,9.23
2018-08-09T18:32:44.983Z,10.37
2018-08-09T18:35:15.040Z,10.17
2018-08-09T18:37:43.816Z,8.53
2018-08-09T18:40:16.948Z,6.40
2018-08-09T18:42:45.644Z,8.77
2018-08-09T18:45:14.602Z,8.73
2018-08-09T18:47:43.284Z,5.87
2018-08-09T18:50:14.801Z,6.07
2018-08-09T18:52:43.545Z,5.23
2018-08-09T18:55:13.387Z,7.13
2018-08-09T18:57:41.967Z,8.23
2018-08-09T19:00:18.550Z,7.93
2018-08-09T19:02:47.817Z,6.67
2018-08-09T19:05:16.524Z,4.37
2018-08-09T19:07:45.337Z,3.53
2018-08-09T19:10:16.103Z,4.47
2018-08-09T19:12:44.877Z,4.10
2018-08-09T19:15:13.716Z,5.00
2018-08-09T19:17:42.824Z,8.53
2018-08-09T19:20:18.077Z,7.07
2018-08-09T19:22:47.258Z,4.53
2018-08-09T19:25:16.192Z,6.07
2018-08-09T19:27:44.956Z,5.93
2018-08-09T19:30:15.511Z,5.63
2018-08-09T19:32:44.434Z,6.07
2018-08-09T19:35:14.636Z,7.33
2018-08-09T19:37:43.561Z,8.27
2018-08-09T19:40:14.012Z,6.23
2018-08-09T19:42:42.939Z,6.67
2018-08-09T19:45:14.126Z,8.07
2018-08-09T19:47:42.948Z,9.10
2018-08-09T19:50:13.566Z,6.63
2018-08-09T19:52:42.824Z,6.97
2018-08-09T19:55:12.942Z,4.83
2018-08-09T19:57:42.938Z,3.73
2018-08-09T20:00:13.640Z,3.90
2018-08-09T20:02:42.609Z,2.50
2018-08-09T20:05:11.740Z,4.30
2018-08-09T20:07:40.576Z,5.23
2018-08-09T20:10:10.571Z,2.50
2018-08-09T20:12:39.768Z,4.00
2018-08-09T20:15:11.019Z,3.80
2018-08-09T20:17:39.800Z,4.40
2018-08-09T20:20:09.094Z,5.23
2018-08-09T20:22:37.657Z,2.70
2018-08-09T20:25:07.708Z,3.87
2018-08-09T20:27:36.285Z,3.87
2018-08-09T20:30:07.652Z,4.33
2018-08-09T20:32:36.175Z,3.90
2018-08-09T20:35:07.089Z,5.20
2018-08-09T20:37:35.698Z,5.90
2018-08-09T20:40:05.372Z,5.27
2018-08-09T20:42:34.147Z,4.00
2018-08-09T20:45:02.673Z,3.80
2018-08-09T20:47:31.235Z,4.10
2018-08-09T20:50:00.063Z,4.27
2018-08-09T20:52:28.630Z,5.30
2018-08-09T20:54:57.194Z,4.37
2018-08-09T20:57:25.931Z,5.07
2018-08-09T20:59:54.485Z,4.10
2018-08-09T21:02:23.062Z,3.40
2018-08-09T21:04:51.628Z,3.63
2018-08-09T21:07:20.275Z,2.97
2018-08-09T21:09:48.861Z,3.10
2018-08-09T21:12:18.818Z,2.93
2018-08-09T21:14:47.393Z,3.60
2018-08-09T21:17:16.118Z,3.40
2018-08-09T21:19:44.633Z,2.70
2018-08-09T21:22:13.332Z,3.50
2018-08-09T21:24:41.859Z,3.17
2018-08-09T21:27:10.377Z,3.07
2018-08-09T21:29:38.956Z,5.00
2018-08-09T21:32:14.355Z,4.93
2018-08-09T21:34:42.864Z,5.90
2018-08-09T21:37:11.418Z,4.23
2018-08-09T21:39:40.103Z,6.07
2018-08-09T21:42:08.745Z,4.80
2018-08-09T21:44:37.305Z,6.20
2018-08-09T21:47:05.964Z,5.53
2018-08-09T21:49:34.539Z,5.20
2018-08-09T21:52:03.093Z,6.60
2018-08-09T21:54:31.724Z,6.00
2018-08-09T21:57:00.281Z,6.77
2018-08-09T21:59:28.831Z,6.83
2018-08-09T22:01:57.430Z,9.33
2018-08-09T22:04:25.987Z,9.67
2018-08-09T22:06:59.686Z,6.70
2018-08-09T22:09:33.588Z,6.97
2018-08-09T22:12:07.660Z,6.37
2018-08-09T22:14:41.352Z,7.00
2018-08-09T22:17:15.089Z,8.00
2018-08-09T22:19:48.847Z,6.30
2018-08-09T22:22:22.127Z,6.90
2018-08-09T22:24:50.863Z,6.53
2018-08-09T22:27:19.909Z,6.60
2018-08-09T22:29:48.413Z,8.37
2018-08-09T22:32:17.016Z,7.43
2018-08-09T22:34:45.671Z,7.73
2018-08-09T22:37:14.189Z,6.03
2018-08-09T22:39:43.088Z,8.67
2018-08-09T22:42:11.619Z,8.70
2018-08-09T22:44:40.184Z,6.10
2018-08-09T22:47:08.782Z,7.37
2018-08-09T22:49:37.394Z,7.50
2018-08-09T22:52:06.123Z,8.40
2018-08-09T22:54:34.702Z,6.70
2018-08-09T22:57:03.324Z,6.63
2018-08-09T22:59:31.899Z,6.77
2018-08-09T23:02:00.466Z,7.10
2018-08-09T23:04:29.043Z,5.77
2018-08-09T23:06:58.017Z,7.87
2018-08-09T23:09:26.614Z,7.57
2018-08-09T23:11:55.266Z,8.50
2018-08-09T23:14:23.937Z,8.67
2018-08-09T23:16:52.535Z,10.97
2018-08-09T23:19:21.094Z,9.30
2018-08-09T23:21:49.656Z,7.30
2018-08-09T23:24:18.275Z,8.30
2018-08-09T23:26:47.041Z,8.07
2018-08-09T23:29:15.599Z,7.47
2018-08-09T23:31:44.129Z,8.60
2018-08-09T23:34:12.689Z,6.57
2018-08-09T23:36:41.197Z,7.07
2018-08-09T23:39:12.296Z,6.90
2018-08-09T23:41:40.985Z,5.90
2018-08-09T23:44:09.517Z,8.40
2018-08-09T23:46:38.017Z,6.03
2018-08-09T23:49:06.688Z,8.73
2018-08-09T23:51:35.215Z,6.80
2018-08-09T23:54:03.956Z,6.03
2018-08-09T23:56:32.476Z,7.30
2018-08-09T23:59:00.965Z,6.00
